sensor_id;sensor_type;location;lat;lon;timestamp;temperature;humidity
11597;DHT22;5854;48.072;16.286;2024-01-30T00:00:34;0.60;70.10
11597;DHT22;5854;48.072;16.286;2024-01-30T00:03:01;0.60;71.30
11597;DHT22;5854;48.072;16.286;2024-01-30T00:05:28;0.60;71.30
11597;DHT22;5854;48.072;16.286;2024-01-30T00:07:55;0.60;70.90
11597;DHT22;5854;48.072;16.286;2024-01-30T00:10:23;0.60;69.40
11597;DHT22;5854;48.072;16.286;2024-01-30T00:12:51;0.60;70.70
11597;DHT22;5854;48.072;16.286;2024-01-30T00:15:19;0.60;70.80
11597;DHT22;5854;48.072;16.286;2024-01-30T00:17:46;0.50;69.40
11597;DHT22;5854;48.072;16.286;2024-01-30T00:20:13;0.50;70.50
11597;DHT22;5854;48.072;16.286;2024-01-30T00:22:40;0.50;69.60
11597;DHT22;5854;48.072;16.286;2024-01-30T00:25:08;0.40;70.60
11597;DHT22;5854;48.072;16.286;2024-01-30T00:27:35;0.40;71.20
11597;DHT22;5854;48.072;16.286;2024-01-30T00:30:05;0.50;70.90
11597;DHT22;5854;48.072;16.286;2024-01-30T00:32:33;0.40;71.10
11597;DHT22;5854;48.072;16.286;2024-01-30T00:35:00;0.40;70.90
11597;DHT22;5854;48.072;16.286;2024-01-30T00:37:28;0.40;70.30
11597;DHT22;5854;48.072;16.286;2024-01-30T00:39:55;0.40;71.50
11597;DHT22;5854;48.072;16.286;2024-01-30T00:42:22;0.40;71.00
11597;DHT22;5854;48.072;16.286;2024-01-30T00:44:49;0.40;71.40
11597;DHT22;5854;48.072;16.286;2024-01-30T00:47:18;0.40;70.70
11597;DHT22;5854;48.072;16.286;2024-01-30T00:49:45;0.40;71.70
11597;DHT22;5854;48.072;16.286;2024-01-30T00:52:12;0.30;69.70
11597;DHT22;5854;48.072;16.286;2024-01-30T00:54:39;0.30;70.70
11597;DHT22;5854;48.072;16.286;2024-01-30T00:57:07;0.30;71.50
11597;DHT22;5854;48.072;16.286;2024-01-30T00:59:34;0.30;70.40
11597;DHT22;5854;48.072;16.286;2024-01-30T01:02:02;0.30;70.60
11597;DHT22;5854;48.072;16.286;2024-01-30T01:04:31;0.30;71.90
11597;DHT22;5854;48.072;16.286;2024-01-30T01:06:58;0.30;71.20
11597;DHT22;5854;48.072;16.286;2024-01-30T01:09:26;0.30;71.20
11597;DHT22;5854;48.072;16.286;2024-01-30T01:11:53;0.30;71.20
11597;DHT22;5854;48.072;16.286;2024-01-30T01:14:20;0.30;70.80
11597;DHT22;5854;48.072;16.286;2024-01-30T01:16:48;0.20;70.90
11597;DHT22;5854;48.072;16.286;2024-01-30T01:19:15;0.20;70.10
11597;DHT22;5854;48.072;16.286;2024-01-30T01:21:44;0.10;70.50
11597;DHT22;5854;48.072;16.286;2024-01-30T01:24:11;0.10;71.10
11597;DHT22;5854;48.072;16.286;2024-01-30T01:26:38;0.10;70.40
11597;DHT22;5854;48.072;16.286;2024-01-30T01:29:06;0.10;71.20
11597;DHT22;5854;48.072;16.286;2024-01-30T01:31:35;0.10;71.60
11597;DHT22;5854;48.072;16.286;2024-01-30T01:34:09;0.10;71.30
11597;DHT22;5854;48.072;16.286;2024-01-30T01:36:36;0.10;71.00
11597;DHT22;5854;48.072;16.286;2024-01-30T01:39:05;0.10;71.90
11597;DHT22;5854;48.072;16.286;2024-01-30T01:41:32;0.10;70.90
11597;DHT22;5854;48.072;16.286;2024-01-30T01:44:00;0.00;70.20
11597;DHT22;5854;48.072;16.286;2024-01-30T01:46:30;0.00;70.30
11597;DHT22;5854;48.072;16.286;2024-01-30T01:49:00;0.10;71.50
11597;DHT22;5854;48.072;16.286;2024-01-30T01:51:30;0.00;70.70
11597;DHT22;5854;48.072;16.286;2024-01-30T01:54:00;0.00;71.20
11597;DHT22;5854;48.072;16.286;2024-01-30T01:56:31;0.00;69.90
11597;DHT22;5854;48.072;16.286;2024-01-30T01:59:00;0.00;71.20
11597;DHT22;5854;48.072;16.286;2024-01-30T02:01:32;0.00;70.30
11597;DHT22;5854;48.072;16.286;2024-01-30T02:04:00;-0.10;70.90
11597;DHT22;5854;48.072;16.286;2024-01-30T02:06:28;-0.10;71.10
11597;DHT22;5854;48.072;16.286;2024-01-30T02:08:55;-0.10;71.60
11597;DHT22;5854;48.072;16.286;2024-01-30T02:11:23;-0.10;71.70
11597;DHT22;5854;48.072;16.286;2024-01-30T02:13:52;0.00;71.30
11597;DHT22;5854;48.072;16.286;2024-01-30T02:16:19;-0.10;70.90
11597;DHT22;5854;48.072;16.286;2024-01-30T02:18:47;-0.10;72.10
11597;DHT22;5854;48.072;16.286;2024-01-30T02:21:16;-0.10;71.30
11597;DHT22;5854;48.072;16.286;2024-01-30T02:23:44;-0.10;70.10
11597;DHT22;5854;48.072;16.286;2024-01-30T02:26:13;-0.20;70.60
11597;DHT22;5854;48.072;16.286;2024-01-30T02:28:41;-0.20;71.00
11597;DHT22;5854;48.072;16.286;2024-01-30T02:31:08;-0.20;70.90
11597;DHT22;5854;48.072;16.286;2024-01-30T02:33:35;-0.20;71.00
11597;DHT22;5854;48.072;16.286;2024-01-30T02:36:03;-0.20;70.70
11597;DHT22;5854;48.072;16.286;2024-01-30T02:38:32;-0.20;71.40
11597;DHT22;5854;48.072;16.286;2024-01-30T02:40:59;-0.20;71.10
11597;DHT22;5854;48.072;16.286;2024-01-30T02:43:27;-0.20;71.20
11597;DHT22;5854;48.072;16.286;2024-01-30T02:45:54;-0.30;70.60
11597;DHT22;5854;48.072;16.286;2024-01-30T02:48:21;-0.30;71.40
11597;DHT22;5854;48.072;16.286;2024-01-30T02:50:48;-0.30;71.60
11597;DHT22;5854;48.072;16.286;2024-01-30T02:53:15;-0.30;71.20
11597;DHT22;5854;48.072;16.286;2024-01-30T02:55:44;-0.40;70.80
11597;DHT22;5854;48.072;16.286;2024-01-30T02:58:11;-0.30;72.70
11597;DHT22;5854;48.072;16.286;2024-01-30T03:00:38;-0.30;71.50
11597;DHT22;5854;48.072;16.286;2024-01-30T03:03:06;-0.30;71.90
11597;DHT22;5854;48.072;16.286;2024-01-30T03:05:33;-0.30;70.90
11597;DHT22;5854;48.072;16.286;2024-01-30T03:08:00;-0.40;69.90
11597;DHT22;5854;48.072;16.286;2024-01-30T03:10:27;-0.40;71.20
11597;DHT22;5854;48.072;16.286;2024-01-30T03:12:56;-0.40;71.40
11597;DHT22;5854;48.072;16.286;2024-01-30T03:15:23;-0.40;71.60
11597;DHT22;5854;48.072;16.286;2024-01-30T03:17:50;-0.40;71.50
11597;DHT22;5854;48.072;16.286;2024-01-30T03:20:17;-0.40;71.90
11597;DHT22;5854;48.072;16.286;2024-01-30T03:22:45;-0.40;71.10
11597;DHT22;5854;48.072;16.286;2024-01-30T03:25:12;-0.50;71.80
11597;DHT22;5854;48.072;16.286;2024-01-30T03:27:39;-0.40;72.20
11597;DHT22;5854;48.072;16.286;2024-01-30T03:30:09;-0.50;71.60
11597;DHT22;5854;48.072;16.286;2024-01-30T03:32:36;-0.50;70.10
11597;DHT22;5854;48.072;16.286;2024-01-30T03:35:04;-0.60;70.00
11597;DHT22;5854;48.072;16.286;2024-01-30T03:37:32;-0.60;71.50
11597;DHT22;5854;48.072;16.286;2024-01-30T03:39:59;-0.50;71.60
11597;DHT22;5854;48.072;16.286;2024-01-30T03:42:26;-0.50;72.20
11597;DHT22;5854;48.072;16.286;2024-01-30T03:44:54;-0.60;71.70
11597;DHT22;5854;48.072;16.286;2024-01-30T03:47:22;-0.60;70.90
11597;DHT22;5854;48.072;16.286;2024-01-30T03:49:50;-0.60;72.00
11597;DHT22;5854;48.072;16.286;2024-01-30T03:52:17;-0.60;70.60
11597;DHT22;5854;48.072;16.286;2024-01-30T03:54:44;-0.60;70.00
11597;DHT22;5854;48.072;16.286;2024-01-30T03:57:11;-0.60;70.50
11597;DHT22;5854;48.072;16.286;2024-01-30T03:59:41;-0.60;71.60
11597;DHT22;5854;48.072;16.286;2024-01-30T04:02:10;-0.60;71.80
11597;DHT22;5854;48.072;16.286;2024-01-30T04:04:39;-0.60;71.40
11597;DHT22;5854;48.072;16.286;2024-01-30T04:07:06;-0.60;71.20
11597;DHT22;5854;48.072;16.286;2024-01-30T04:09:33;-0.60;72.00
11597;DHT22;5854;48.072;16.286;2024-01-30T04:12:00;-0.60;71.00
11597;DHT22;5854;48.072;16.286;2024-01-30T04:14:28;-0.70;70.80
11597;DHT22;5854;48.072;16.286;2024-01-30T04:16:55;-0.70;70.90
11597;DHT22;5854;48.072;16.286;2024-01-30T04:19:22;-0.70;70.90
11597;DHT22;5854;48.072;16.286;2024-01-30T04:21:51;-0.80;70.40
11597;DHT22;5854;48.072;16.286;2024-01-30T04:24:18;-0.70;72.00
11597;DHT22;5854;48.072;16.286;2024-01-30T04:26:45;-0.70;72.20
11597;DHT22;5854;48.072;16.286;2024-01-30T04:29:13;-0.80;70.10
11597;DHT22;5854;48.072;16.286;2024-01-30T04:31:40;-0.80;71.20
11597;DHT22;5854;48.072;16.286;2024-01-30T04:34:07;-0.80;71.80
11597;DHT22;5854;48.072;16.286;2024-01-30T04:36:34;-0.80;71.40
11597;DHT22;5854;48.072;16.286;2024-01-30T04:39:03;-0.80;71.90
11597;DHT22;5854;48.072;16.286;2024-01-30T04:41:30;-0.80;71.00
11597;DHT22;5854;48.072;16.286;2024-01-30T04:43:58;-0.90;70.80
11597;DHT22;5854;48.072;16.286;2024-01-30T04:46:25;-0.80;71.70
11597;DHT22;5854;48.072;16.286;2024-01-30T04:48:52;-0.90;71.40
11597;DHT22;5854;48.072;16.286;2024-01-30T04:51:19;-0.80;71.50
11597;DHT22;5854;48.072;16.286;2024-01-30T04:53:47;-0.90;71.40
11597;DHT22;5854;48.072;16.286;2024-01-30T04:56:15;-0.90;71.90
11597;DHT22;5854;48.072;16.286;2024-01-30T04:58:42;-0.90;72.00
11597;DHT22;5854;48.072;16.286;2024-01-30T05:01:10;-0.90;72.50
11597;DHT22;5854;48.072;16.286;2024-01-30T05:03:41;-0.90;71.80
11597;DHT22;5854;48.072;16.286;2024-01-30T05:06:09;-0.90;71.60
11597;DHT22;5854;48.072;16.286;2024-01-30T05:08:36;-0.90;71.80
11597;DHT22;5854;48.072;16.286;2024-01-30T05:11:04;-0.90;71.90
11597;DHT22;5854;48.072;16.286;2024-01-30T05:13:33;-1.00;71.40
11597;DHT22;5854;48.072;16.286;2024-01-30T05:16:02;-1.00;72.40
11597;DHT22;5854;48.072;16.286;2024-01-30T05:18:30;-1.00;71.70
11597;DHT22;5854;48.072;16.286;2024-01-30T05:20:59;-1.00;72.00
11597;DHT22;5854;48.072;16.286;2024-01-30T05:23:26;-1.00;72.30
11597;DHT22;5854;48.072;16.286;2024-01-30T05:25:54;-0.90;72.00
11597;DHT22;5854;48.072;16.286;2024-01-30T05:28:21;-1.00;72.10
11597;DHT22;5854;48.072;16.286;2024-01-30T05:30:55;-1.00;71.10
11597;DHT22;5854;48.072;16.286;2024-01-30T05:33:25;-1.00;72.20
11597;DHT22;5854;48.072;16.286;2024-01-30T05:35:52;-1.00;71.30
11597;DHT22;5854;48.072;16.286;2024-01-30T05:38:20;-1.00;71.80
11597;DHT22;5854;48.072;16.286;2024-01-30T05:40:47;-1.00;71.30
11597;DHT22;5854;48.072;16.286;2024-01-30T05:43:15;-1.10;71.60
11597;DHT22;5854;48.072;16.286;2024-01-30T05:45:42;-1.10;71.20
11597;DHT22;5854;48.072;16.286;2024-01-30T05:48:11;-1.10;71.50
11597;DHT22;5854;48.072;16.286;2024-01-30T05:50:38;-1.10;71.80
11597;DHT22;5854;48.072;16.286;2024-01-30T05:53:06;-1.10;70.90
11597;DHT22;5854;48.072;16.286;2024-01-30T05:55:33;-1.10;72.10
11597;DHT22;5854;48.072;16.286;2024-01-30T05:58:00;-1.10;72.50
11597;DHT22;5854;48.072;16.286;2024-01-30T06:00:27;-1.10;71.50
11597;DHT22;5854;48.072;16.286;2024-01-30T06:02:55;-1.20;71.90
11597;DHT22;5854;48.072;16.286;2024-01-30T06:05:23;-1.10;72.60
11597;DHT22;5854;48.072;16.286;2024-01-30T06:07:51;-1.10;71.70
11597;DHT22;5854;48.072;16.286;2024-01-30T06:10:18;-1.20;72.40
11597;DHT22;5854;48.072;16.286;2024-01-30T06:12:45;-1.10;72.00
11597;DHT22;5854;48.072;16.286;2024-01-30T06:15:13;-1.20;71.90
11597;DHT22;5854;48.072;16.286;2024-01-30T06:17:41;-1.20;71.40
11597;DHT22;5854;48.072;16.286;2024-01-30T06:20:09;-1.20;72.30
11597;DHT22;5854;48.072;16.286;2024-01-30T06:22:38;-1.20;71.60
11597;DHT22;5854;48.072;16.286;2024-01-30T06:25:05;-1.20;72.20
11597;DHT22;5854;48.072;16.286;2024-01-30T06:27:33;-1.20;72.40
11597;DHT22;5854;48.072;16.286;2024-01-30T06:30:01;-1.20;72.90
11597;DHT22;5854;48.072;16.286;2024-01-30T06:32:29;-1.20;72.60
11597;DHT22;5854;48.072;16.286;2024-01-30T06:34:59;-1.20;72.30
11597;DHT22;5854;48.072;16.286;2024-01-30T06:37:27;-1.30;71.80
11597;DHT22;5854;48.072;16.286;2024-01-30T06:39:56;-1.70;73.50
11597;DHT22;5854;48.072;16.286;2024-01-30T06:42:23;-1.70;74.40
11597;DHT22;5854;48.072;16.286;2024-01-30T06:44:50;-1.50;75.60
11597;DHT22;5854;48.072;16.286;2024-01-30T06:47:17;-1.50;74.60
11597;DHT22;5854;48.072;16.286;2024-01-30T06:49:45;-1.40;74.30
11597;DHT22;5854;48.072;16.286;2024-01-30T06:52:12;-1.40;74.10
11597;DHT22;5854;48.072;16.286;2024-01-30T06:54:47;-1.30;73.90
11597;DHT22;5854;48.072;16.286;2024-01-30T06:57:15;-1.30;73.40
11597;DHT22;5854;48.072;16.286;2024-01-30T06:59:42;-1.30;72.50
11597;DHT22;5854;48.072;16.286;2024-01-30T07:02:10;-1.30;72.70
11597;DHT22;5854;48.072;16.286;2024-01-30T07:04:37;-1.30;72.60
11597;DHT22;5854;48.072;16.286;2024-01-30T07:07:05;-1.30;72.20
11597;DHT22;5854;48.072;16.286;2024-01-30T07:09:37;-1.30;72.00
11597;DHT22;5854;48.072;16.286;2024-01-30T07:12:05;-1.30;72.10
11597;DHT22;5854;48.072;16.286;2024-01-30T07:14:34;-1.30;72.00
11597;DHT22;5854;48.072;16.286;2024-01-30T07:17:02;-1.30;72.30
11597;DHT22;5854;48.072;16.286;2024-01-30T07:19:29;-1.30;72.30
11597;DHT22;5854;48.072;16.286;2024-01-30T07:21:56;-1.20;72.20
11597;DHT22;5854;48.072;16.286;2024-01-30T07:24:23;-1.20;72.00
11597;DHT22;5854;48.072;16.286;2024-01-30T07:26:51;-1.20;71.80
11597;DHT22;5854;48.072;16.286;2024-01-30T07:29:19;-1.30;71.60
11597;DHT22;5854;48.072;16.286;2024-01-30T07:31:48;-1.30;72.10
11597;DHT22;5854;48.072;16.286;2024-01-30T07:34:16;-1.20;72.20
11597;DHT22;5854;48.072;16.286;2024-01-30T07:36:43;-1.20;72.20
11597;DHT22;5854;48.072;16.286;2024-01-30T07:39:11;-1.20;72.00
11597;DHT22;5854;48.072;16.286;2024-01-30T07:41:39;-1.20;72.00
11597;DHT22;5854;48.072;16.286;2024-01-30T07:44:06;-1.20;72.00
11597;DHT22;5854;48.072;16.286;2024-01-30T07:46:33;-1.20;72.10
11597;DHT22;5854;48.072;16.286;2024-01-30T07:49:02;-1.20;71.90
11597;DHT22;5854;48.072;16.286;2024-01-30T07:51:29;-1.10;71.80
11597;DHT22;5854;48.072;16.286;2024-01-30T07:53:58;-1.20;71.70
11597;DHT22;5854;48.072;16.286;2024-01-30T07:56:25;-1.10;71.50
11597;DHT22;5854;48.072;16.286;2024-01-30T07:58:53;-1.10;72.50
11597;DHT22;5854;48.072;16.286;2024-01-30T08:01:20;-1.20;73.60
11597;DHT22;5854;48.072;16.286;2024-01-30T08:03:48;-1.20;75.10
11597;DHT22;5854;48.072;16.286;2024-01-30T08:06:16;-1.20;77.00
11597;DHT22;5854;48.072;16.286;2024-01-30T08:08:44;-1.10;78.10
11597;DHT22;5854;48.072;16.286;2024-01-30T08:11:14;-1.10;80.80
11597;DHT22;5854;48.072;16.286;2024-01-30T08:13:44;-1.10;82.40
11597;DHT22;5854;48.072;16.286;2024-01-30T08:16:11;-1.00;82.90
11597;DHT22;5854;48.072;16.286;2024-01-30T08:18:39;-0.90;82.60
11597;DHT22;5854;48.072;16.286;2024-01-30T08:21:06;-0.90;81.80
11597;DHT22;5854;48.072;16.286;2024-01-30T08:23:35;-0.90;78.80
11597;DHT22;5854;48.072;16.286;2024-01-30T08:26:02;-0.80;77.20
11597;DHT22;5854;48.072;16.286;2024-01-30T08:28:30;-0.70;80.30
11597;DHT22;5854;48.072;16.286;2024-01-30T08:30:57;-0.70;80.70
11597;DHT22;5854;48.072;16.286;2024-01-30T08:33:24;-0.60;83.60
11597;DHT22;5854;48.072;16.286;2024-01-30T08:35:52;-0.50;83.50
11597;DHT22;5854;48.072;16.286;2024-01-30T08:38:19;-0.50;82.90
11597;DHT22;5854;48.072;16.286;2024-01-30T08:40:48;-0.40;83.70
11597;DHT22;5854;48.072;16.286;2024-01-30T08:43:16;-0.30;81.20
11597;DHT22;5854;48.072;16.286;2024-01-30T08:45:43;-0.20;84.50
11597;DHT22;5854;48.072;16.286;2024-01-30T08:48:10;0.00;88.50
11597;DHT22;5854;48.072;16.286;2024-01-30T08:50:37;0.10;85.80
11597;DHT22;5854;48.072;16.286;2024-01-30T08:53:05;0.10;81.90
11597;DHT22;5854;48.072;16.286;2024-01-30T08:55:32;0.10;80.70
11597;DHT22;5854;48.072;16.286;2024-01-30T08:58:00;0.20;81.90
11597;DHT22;5854;48.072;16.286;2024-01-30T09:00:30;0.30;80.40
11597;DHT22;5854;48.072;16.286;2024-01-30T09:02:57;0.40;85.90
11597;DHT22;5854;48.072;16.286;2024-01-30T09:05:24;0.60;85.80
11597;DHT22;5854;48.072;16.286;2024-01-30T09:07:52;0.80;87.30
11597;DHT22;5854;48.072;16.286;2024-01-30T09:10:19;1.10;86.80
11597;DHT22;5854;48.072;16.286;2024-01-30T09:12:47;0.90;74.80
11597;DHT22;5854;48.072;16.286;2024-01-30T09:15:16;0.80;73.60
11597;DHT22;5854;48.072;16.286;2024-01-30T09:17:44;0.90;81.90
11597;DHT22;5854;48.072;16.286;2024-01-30T09:20:12;1.00;77.10
11597;DHT22;5854;48.072;16.286;2024-01-30T09:22:39;0.80;76.10
11597;DHT22;5854;48.072;16.286;2024-01-30T09:25:07;1.00;83.40
11597;DHT22;5854;48.072;16.286;2024-01-30T09:27:34;0.90;75.40
11597;DHT22;5854;48.072;16.286;2024-01-30T09:30:01;0.90;80.40
11597;DHT22;5854;48.072;16.286;2024-01-30T09:32:31;1.30;83.50
11597;DHT22;5854;48.072;16.286;2024-01-30T09:34:58;1.40;79.70
11597;DHT22;5854;48.072;16.286;2024-01-30T09:37:25;1.50;79.90
11597;DHT22;5854;48.072;16.286;2024-01-30T09:39:53;1.50;80.40
11597;DHT22;5854;48.072;16.286;2024-01-30T09:42:26;1.30;71.80
11597;DHT22;5854;48.072;16.286;2024-01-30T09:44:55;1.20;74.50
11597;DHT22;5854;48.072;16.286;2024-01-30T09:47:23;1.60;77.90
11597;DHT22;5854;48.072;16.286;2024-01-30T09:49:52;1.70;78.20
11597;DHT22;5854;48.072;16.286;2024-01-30T09:52:20;1.70;75.80
11597;DHT22;5854;48.072;16.286;2024-01-30T09:54:48;1.80;75.80
11597;DHT22;5854;48.072;16.286;2024-01-30T09:57:16;1.60;70.50
11597;DHT22;5854;48.072;16.286;2024-01-30T09:59:44;1.30;69.90
11597;DHT22;5854;48.072;16.286;2024-01-30T10:02:11;1.30;72.00
11597;DHT22;5854;48.072;16.286;2024-01-30T10:04:39;1.80;78.40
11597;DHT22;5854;48.072;16.286;2024-01-30T10:07:08;2.20;75.40
11597;DHT22;5854;48.072;16.286;2024-01-30T10:09:38;2.20;74.80
11597;DHT22;5854;48.072;16.286;2024-01-30T10:12:06;2.40;75.20
11597;DHT22;5854;48.072;16.286;2024-01-30T10:14:37;2.10;66.00
11597;DHT22;5854;48.072;16.286;2024-01-30T10:17:05;1.80;69.80
11597;DHT22;5854;48.072;16.286;2024-01-30T10:19:33;1.70;71.30
11597;DHT22;5854;48.072;16.286;2024-01-30T10:22:01;1.80;75.10
11597;DHT22;5854;48.072;16.286;2024-01-30T10:24:29;2.00;74.00
11597;DHT22;5854;48.072;16.286;2024-01-30T10:26:57;1.80;67.70
11597;DHT22;5854;48.072;16.286;2024-01-30T10:29:24;2.20;76.00
11597;DHT22;5854;48.072;16.286;2024-01-30T10:31:58;2.50;70.60
11597;DHT22;5854;48.072;16.286;2024-01-30T10:34:26;2.40;67.70
11597;DHT22;5854;48.072;16.286;2024-01-30T10:37:01;2.30;70.60
11597;DHT22;5854;48.072;16.286;2024-01-30T10:39:40;2.70;72.00
11597;DHT22;5854;48.072;16.286;2024-01-30T10:42:11;2.90;68.90
11597;DHT22;5854;48.072;16.286;2024-01-30T10:44:46;2.80;66.40
11597;DHT22;5854;48.072;16.286;2024-01-30T10:47:24;2.70;66.80
11597;DHT22;5854;48.072;16.286;2024-01-30T10:49:54;2.60;66.70
11597;DHT22;5854;48.072;16.286;2024-01-30T10:52:23;2.80;68.30
11597;DHT22;5854;48.072;16.286;2024-01-30T10:54:54;2.80;66.60
11597;DHT22;5854;48.072;16.286;2024-01-30T10:57:23;2.60;68.80
11597;DHT22;5854;48.072;16.286;2024-01-30T10:59:52;2.70;69.60
11597;DHT22;5854;48.072;16.286;2024-01-30T11:02:22;2.70;66.40
11597;DHT22;5854;48.072;16.286;2024-01-30T11:04:55;3.00;71.10
11597;DHT22;5854;48.072;16.286;2024-01-30T11:07:25;2.90;68.80
11597;DHT22;5854;48.072;16.286;2024-01-30T11:10:02;3.10;67.60
11597;DHT22;5854;48.072;16.286;2024-01-30T11:12:32;2.70;60.10
11597;DHT22;5854;48.072;16.286;2024-01-30T11:15:05;2.50;69.00
11597;DHT22;5854;48.072;16.286;2024-01-30T11:17:43;2.70;67.20
11597;DHT22;5854;48.072;16.286;2024-01-30T11:20:12;2.90;68.50
11597;DHT22;5854;48.072;16.286;2024-01-30T11:22:45;3.00;68.80
11597;DHT22;5854;48.072;16.286;2024-01-30T11:25:17;3.20;68.90
11597;DHT22;5854;48.072;16.286;2024-01-30T11:27:46;3.50;65.90
11597;DHT22;5854;48.072;16.286;2024-01-30T11:30:22;3.60;63.80
11597;DHT22;5854;48.072;16.286;2024-01-30T11:33:02;3.50;62.70
11597;DHT22;5854;48.072;16.286;2024-01-30T11:35:33;3.60;62.50
11597;DHT22;5854;48.072;16.286;2024-01-30T11:38:03;3.60;60.70
11597;DHT22;5854;48.072;16.286;2024-01-30T11:40:33;3.60;62.30
11597;DHT22;5854;48.072;16.286;2024-01-30T11:43:03;3.70;65.30
11597;DHT22;5854;48.072;16.286;2024-01-30T11:45:32;3.70;63.30
11597;DHT22;5854;48.072;16.286;2024-01-30T11:48:00;3.70;64.40
11597;DHT22;5854;48.072;16.286;2024-01-30T11:50:29;3.90;63.50
11597;DHT22;5854;48.072;16.286;2024-01-30T11:52:56;3.60;62.50
11597;DHT22;5854;48.072;16.286;2024-01-30T11:55:24;3.90;77.00
11597;DHT22;5854;48.072;16.286;2024-01-30T11:57:55;4.00;65.20
11597;DHT22;5854;48.072;16.286;2024-01-30T12:00:22;3.80;64.10
11597;DHT22;5854;48.072;16.286;2024-01-30T12:02:50;3.70;67.20
11597;DHT22;5854;48.072;16.286;2024-01-30T12:05:21;4.10;65.00
11597;DHT22;5854;48.072;16.286;2024-01-30T12:07:49;3.80;58.40
11597;DHT22;5854;48.072;16.286;2024-01-30T12:10:16;3.60;68.30
11597;DHT22;5854;48.072;16.286;2024-01-30T12:12:46;3.90;72.80
11597;DHT22;5854;48.072;16.286;2024-01-30T12:15:16;3.70;63.60
11597;DHT22;5854;48.072;16.286;2024-01-30T12:17:47;3.90;68.60
11597;DHT22;5854;48.072;16.286;2024-01-30T12:20:17;3.70;60.50
11597;DHT22;5854;48.072;16.286;2024-01-30T12:22:47;3.20;67.70
11597;DHT22;5854;48.072;16.286;2024-01-30T12:25:16;3.70;67.20
11597;DHT22;5854;48.072;16.286;2024-01-30T12:27:46;4.20;64.30
11597;DHT22;5854;48.072;16.286;2024-01-30T12:30:17;4.20;64.90
11597;DHT22;5854;48.072;16.286;2024-01-30T12:32:46;4.40;62.10
11597;DHT22;5854;48.072;16.286;2024-01-30T12:35:16;4.40;64.30
11597;DHT22;5854;48.072;16.286;2024-01-30T12:37:45;4.50;63.20
11597;DHT22;5854;48.072;16.286;2024-01-30T12:40:14;4.50;60.10
11597;DHT22;5854;48.072;16.286;2024-01-30T12:42:42;4.40;64.50
11597;DHT22;5854;48.072;16.286;2024-01-30T12:45:17;4.50;64.10
11597;DHT22;5854;48.072;16.286;2024-01-30T12:47:47;4.80;63.40
11597;DHT22;5854;48.072;16.286;2024-01-30T12:50:15;4.80;61.60
11597;DHT22;5854;48.072;16.286;2024-01-30T12:52:43;4.80;63.20
11597;DHT22;5854;48.072;16.286;2024-01-30T12:55:11;4.80;59.20
11597;DHT22;5854;48.072;16.286;2024-01-30T12:57:38;4.60;63.10
11597;DHT22;5854;48.072;16.286;2024-01-30T13:00:07;4.60;64.30
11597;DHT22;5854;48.072;16.286;2024-01-30T13:02:36;4.60;64.20
11597;DHT22;5854;48.072;16.286;2024-01-30T13:05:05;4.60;62.10
11597;DHT22;5854;48.072;16.286;2024-01-30T13:07:33;4.60;63.30
11597;DHT22;5854;48.072;16.286;2024-01-30T13:10:01;4.70;62.60
11597;DHT22;5854;48.072;16.286;2024-01-30T13:12:29;4.80;62.80
11597;DHT22;5854;48.072;16.286;2024-01-30T13:14:58;4.80;62.40
11597;DHT22;5854;48.072;16.286;2024-01-30T13:17:26;4.70;61.80
11597;DHT22;5854;48.072;16.286;2024-01-30T13:19:55;4.80;63.60
11597;DHT22;5854;48.072;16.286;2024-01-30T13:22:23;4.70;62.90
11597;DHT22;5854;48.072;16.286;2024-01-30T13:24:51;4.60;62.70
11597;DHT22;5854;48.072;16.286;2024-01-30T13:27:18;4.60;63.50
11597;DHT22;5854;48.072;16.286;2024-01-30T13:29:45;4.80;71.60
11597;DHT22;5854;48.072;16.286;2024-01-30T13:32:12;5.20;63.40
11597;DHT22;5854;48.072;16.286;2024-01-30T13:34:39;5.10;59.70
11597;DHT22;5854;48.072;16.286;2024-01-30T13:37:08;5.80;76.40
11597;DHT22;5854;48.072;16.286;2024-01-30T13:39:36;5.70;60.40
11597;DHT22;5854;48.072;16.286;2024-01-30T13:42:05;5.70;71.20
11597;DHT22;5854;48.072;16.286;2024-01-30T13:44:34;5.70;59.10
11597;DHT22;5854;48.072;16.286;2024-01-30T13:47:05;5.50;58.80
11597;DHT22;5854;48.072;16.286;2024-01-30T13:49:32;5.10;60.10
11597;DHT22;5854;48.072;16.286;2024-01-30T13:51:59;5.10;59.30
11597;DHT22;5854;48.072;16.286;2024-01-30T13:54:28;5.00;59.30
11597;DHT22;5854;48.072;16.286;2024-01-30T13:56:56;4.90;59.30
11597;DHT22;5854;48.072;16.286;2024-01-30T13:59:23;4.90;59.20
11597;DHT22;5854;48.072;16.286;2024-01-30T14:01:53;4.90;59.20
11597;DHT22;5854;48.072;16.286;2024-01-30T14:04:20;4.90;59.60
11597;DHT22;5854;48.072;16.286;2024-01-30T14:06:48;4.80;58.70
11597;DHT22;5854;48.072;16.286;2024-01-30T14:09:15;4.90;58.80
11597;DHT22;5854;48.072;16.286;2024-01-30T14:11:43;4.70;59.20
11597;DHT22;5854;48.072;16.286;2024-01-30T14:14:13;4.70;59.20
11597;DHT22;5854;48.072;16.286;2024-01-30T14:16:40;4.80;58.90
11597;DHT22;5854;48.072;16.286;2024-01-30T14:19:10;4.60;59.00
11597;DHT22;5854;48.072;16.286;2024-01-30T14:21:38;4.70;58.80
11597;DHT22;5854;48.072;16.286;2024-01-30T14:24:05;4.80;58.10
11597;DHT22;5854;48.072;16.286;2024-01-30T14:26:33;4.80;57.90
11597;DHT22;5854;48.072;16.286;2024-01-30T14:29:01;4.70;59.50
11597;DHT22;5854;48.072;16.286;2024-01-30T14:31:28;4.70;59.50
11597;DHT22;5854;48.072;16.286;2024-01-30T14:33:56;4.60;59.20
11597;DHT22;5854;48.072;16.286;2024-01-30T14:36:24;4.70;59.60
11597;DHT22;5854;48.072;16.286;2024-01-30T14:38:53;4.70;60.20
11597;DHT22;5854;48.072;16.286;2024-01-30T14:41:20;4.80;60.70
11597;DHT22;5854;48.072;16.286;2024-01-30T14:43:48;4.80;59.40
11597;DHT22;5854;48.072;16.286;2024-01-30T14:46:16;4.70;60.50
11597;DHT22;5854;48.072;16.286;2024-01-30T14:48:44;4.60;58.30
11597;DHT22;5854;48.072;16.286;2024-01-30T14:51:11;4.60;58.00
11597;DHT22;5854;48.072;16.286;2024-01-30T14:53:39;4.60;57.50
11597;DHT22;5854;48.072;16.286;2024-01-30T14:56:06;4.70;57.60
11597;DHT22;5854;48.072;16.286;2024-01-30T14:58:34;4.60;57.30
11597;DHT22;5854;48.072;16.286;2024-01-30T15:01:02;4.70;56.80
11597;DHT22;5854;48.072;16.286;2024-01-30T15:03:31;4.60;56.60
11597;DHT22;5854;48.072;16.286;2024-01-30T15:05:58;4.60;56.70
11597;DHT22;5854;48.072;16.286;2024-01-30T15:08:26;4.50;56.60
11597;DHT22;5854;48.072;16.286;2024-01-30T15:10:53;4.50;57.50
11597;DHT22;5854;48.072;16.286;2024-01-30T15:13:22;4.40;60.60
11597;DHT22;5854;48.072;16.286;2024-01-30T15:15:50;4.50;58.10
11597;DHT22;5854;48.072;16.286;2024-01-30T15:18:17;4.40;58.10
11597;DHT22;5854;48.072;16.286;2024-01-30T15:20:45;4.30;57.70
11597;DHT22;5854;48.072;16.286;2024-01-30T15:23:13;4.20;58.20
11597;DHT22;5854;48.072;16.286;2024-01-30T15:25:41;4.10;59.20
11597;DHT22;5854;48.072;16.286;2024-01-30T15:28:09;3.90;59.80
11597;DHT22;5854;48.072;16.286;2024-01-30T15:30:36;3.60;60.90
11597;DHT22;5854;48.072;16.286;2024-01-30T15:33:04;3.50;62.10
11597;DHT22;5854;48.072;16.286;2024-01-30T15:35:31;3.20;64.00
11597;DHT22;5854;48.072;16.286;2024-01-30T15:38:00;2.90;65.50
11597;DHT22;5854;48.072;16.286;2024-01-30T15:40:27;2.80;66.20
11597;DHT22;5854;48.072;16.286;2024-01-30T15:42:55;2.70;67.50
11597;DHT22;5854;48.072;16.286;2024-01-30T15:45:22;2.60;67.60